createdAt,value
2022-09-22T00:01:25.041Z,101038.50
2022-09-22T00:03:57.746Z,101026.56
2022-09-22T00:06:28.966Z,101033.75
2022-09-22T00:09:00.682Z,101020.97
2022-09-22T00:11:36.290Z,101025.75
2022-09-22T00:14:10.084Z,101022.56
2022-09-22T00:16:46.599Z,101013.38
2022-09-22T00:19:22.947Z,101010.59
2022-09-22T00:21:50.638Z,101010.59
2022-09-22T00:24:19.914Z,101003.75
2022-09-22T00:26:46.699Z,101004.56
2022-09-22T00:29:13.714Z,101000.19
2022-09-22T00:31:42.126Z,101008.19
2022-09-22T00:34:19.070Z,100988.63
2022-09-22T00:36:46.746Z,101000.59
2022-09-22T00:39:14.870Z,100985.84
2022-09-22T00:41:44.919Z,100981.81
2022-09-22T00:44:26.703Z,100981.81
2022-09-22T00:46:56.570Z,100984.19
2022-09-22T00:49:31.501Z,100994.53
2022-09-22T00:51:58.214Z,100988.56
2022-09-22T00:54:24.967Z,100985.00
2022-09-22T00:57:08.181Z,100976.22
2022-09-22T00:59:36.284Z,100965.06
2022-09-22T01:02:03.357Z,100965.44
2022-09-22T01:04:30.231Z,100959.03
2022-09-22T01:06:58.549Z,100965.78
2022-09-22T01:09:25.988Z,100952.22
2022-09-22T01:11:53.022Z,100953.81
2022-09-22T01:14:25.830Z,100940.66
2022-09-22T01:17:40.976Z,100944.28
2022-09-22T01:20:33.906Z,100946.66
2022-09-22T01:23:37.944Z,100929.91
2022-09-22T01:26:07.296Z,100944.69
2022-09-22T01:28:55.384Z,100937.50
2022-09-22T01:31:51.233Z,100937.13
2022-09-22T01:34:30.181Z,100914.78
2022-09-22T01:37:24.820Z,100909.19
2022-09-22T01:39:54.547Z,100917.56
2022-09-22T01:42:37.318Z,100906.41
2022-09-22T01:45:07.901Z,100915.94
2022-09-22T01:47:41.102Z,100913.16
2022-09-22T01:50:32.590Z,100905.22
2022-09-22T01:53:03.422Z,100906.41
2022-09-22T01:55:39.025Z,100901.25
2022-09-22T01:58:12.150Z,100897.63
2022-09-22T02:00:44.189Z,100890.06
2022-09-22T02:03:14.816Z,100888.47
2022-09-22T02:05:47.652Z,100892.03
2022-09-22T02:08:20.423Z,100895.97
2022-09-22T02:10:48.720Z,100899.59
2022-09-22T02:13:15.510Z,100905.97
2022-09-22T02:16:01.577Z,100902.00
2022-09-22T02:18:54.145Z,100895.97
2022-09-22T02:21:22.510Z,100890.78
2022-09-22T02:23:49.933Z,100883.59
2022-09-22T02:26:24.152Z,100882.34
2022-09-22T02:29:05.089Z,100884.31
2022-09-22T02:31:36.055Z,100881.81
2022-09-22T02:34:05.319Z,100877.78
2022-09-22T02:37:05.714Z,100878.94
2022-09-22T02:40:07.811Z,100874.09
2022-09-22T02:42:43.837Z,100860.47
2022-09-22T02:45:13.426Z,100861.66
2022-09-22T02:47:52.048Z,100863.19
2022-09-22T02:50:23.018Z,100851.25
2022-09-22T02:52:53.402Z,100852.00
2022-09-22T02:55:20.215Z,100850.38
2022-09-22T02:57:46.955Z,100852.75
2022-09-22T03:02:54.998Z,100845.56
2022-09-22T03:05:21.914Z,100848.34
2022-09-22T03:07:49.288Z,100847.91
2022-09-22T03:10:16.254Z,100840.72
2022-09-22T03:13:09.135Z,100834.34
2022-09-22T03:15:30.969Z,100839.94
2022-09-22T03:17:57.750Z,100829.56
2022-09-22T03:20:24.494Z,100832.34
2022-09-22T03:22:54.867Z,100816.81
2022-09-22T03:25:21.678Z,100831.56
2022-09-22T03:27:48.393Z,100822.38
2022-09-22T03:30:15.060Z,100821.56
2022-09-22T03:32:41.852Z,100819.16
2022-09-22T03:35:09.289Z,100811.97
2022-09-22T03:37:36.467Z,100810.34
2022-09-22T03:40:04.546Z,100802.75
2022-09-22T03:42:32.956Z,100800.75
2022-09-22T03:44:59.968Z,100791.59
2022-09-22T03:47:26.736Z,100795.56
2022-09-22T03:49:53.417Z,100796.72
2022-09-22T03:52:20.601Z,100795.56
2022-09-22T03:54:47.964Z,100795.91
2022-09-22T03:57:15.030Z,100792.75
2022-09-22T03:59:41.713Z,100783.59
2022-09-22T04:02:10.888Z,100783.97
2022-09-22T04:04:37.758Z,100779.19
2022-09-22T04:07:07.402Z,100785.56
2022-09-22T04:09:34.638Z,100777.19
2022-09-22T04:12:01.559Z,100787.91
2022-09-22T04:14:28.265Z,100783.13
2022-09-22T04:16:55.096Z,100777.50
2022-09-22T04:19:22.909Z,100767.53
2022-09-22T04:21:54.619Z,100771.91
2022-09-22T04:24:24.616Z,100767.97
2022-09-22T04:27:17.994Z,100762.38
2022-09-22T04:29:38.693Z,100762.38
2022-09-22T04:32:05.779Z,100776.31
2022-09-22T04:34:32.564Z,100772.31
2022-09-22T04:36:59.363Z,100770.31
2022-09-22T04:39:28.651Z,100769.50
2022-09-22T04:41:56.637Z,100761.91
2022-09-22T04:44:23.410Z,100757.47
2022-09-22T04:46:51.262Z,100760.66
2022-09-22T04:49:19.262Z,100759.47
2022-09-22T04:51:46.074Z,100756.69
2022-09-22T04:54:14.960Z,100752.72
2022-09-22T04:56:42.396Z,100743.94
2022-09-22T04:59:09.696Z,100751.50
2022-09-22T05:01:36.545Z,100749.50
2022-09-22T05:04:04.460Z,100747.06
2022-09-22T05:06:31.260Z,100743.06
2022-09-22T05:08:58.707Z,100744.69
2022-09-22T05:11:26.541Z,100736.69
2022-09-22T05:13:53.232Z,100753.44
2022-09-22T05:16:20.257Z,100745.06
2022-09-22T05:18:50.317Z,100745.84
2022-09-22T05:21:19.703Z,100737.47
2022-09-22T05:23:46.995Z,100737.47
2022-09-22T05:26:15.773Z,100742.28
2022-09-22T05:28:42.969Z,100735.50
2022-09-22T05:31:11.629Z,100745.84
2022-09-22T05:33:38.340Z,100745.06
2022-09-22T05:36:05.162Z,100751.44
2022-09-22T05:38:31.941Z,100743.06
2022-09-22T05:40:58.728Z,100751.44
2022-09-22T05:43:25.903Z,100753.03
2022-09-22T05:45:52.803Z,100760.59
2022-09-22T05:48:19.464Z,100755.84
2022-09-22T05:50:46.190Z,100753.03
2022-09-22T05:53:13.698Z,100758.22
2022-09-22T05:55:41.084Z,100749.09
2022-09-22T05:58:11.923Z,100755.84
2022-09-22T06:00:40.199Z,100741.88
2022-09-22T06:03:07.405Z,100748.63
2022-09-22T06:05:37.170Z,100757.81
2022-09-22T06:08:09.833Z,100766.19
2022-09-22T06:10:38.586Z,100757.81
2022-09-22T06:13:08.250Z,100762.22
2022-09-22T06:15:36.361Z,100759.44
2022-09-22T06:18:07.285Z,100757.00
2022-09-22T06:20:35.388Z,100753.44
2022-09-22T06:23:02.411Z,100767.38
2022-09-22T06:25:29.724Z,100751.81
2022-09-22T06:28:02.022Z,100759.78
2022-09-22T06:30:28.855Z,100758.19
2022-09-22T06:32:56.804Z,100766.19
2022-09-22T06:35:24.231Z,100766.19
2022-09-22T06:37:58.469Z,100755.03
2022-09-22T06:40:26.398Z,100767.00
2022-09-22T06:43:02.168Z,100769.78
2022-09-22T06:45:29.548Z,100761.41
2022-09-22T06:47:59.150Z,100767.00
2022-09-22T06:50:29.447Z,100765.00
2022-09-22T06:53:01.203Z,100770.19
2022-09-22T06:55:31.609Z,100770.19
2022-09-22T06:58:03.029Z,100774.19
2022-09-22T07:00:33.263Z,100767.81
2022-09-22T07:03:13.370Z,100771.81
2022-09-22T07:05:40.101Z,100776.19
2022-09-22T07:08:09.060Z,100777.41
2022-09-22T07:10:38.957Z,100775.78
2022-09-22T07:13:06.572Z,100781.00
2022-09-22T07:15:34.991Z,100787.34
2022-09-22T07:18:02.355Z,100782.22
2022-09-22T07:20:30.586Z,100783.81
2022-09-22T07:23:00.817Z,100794.97
2022-09-22T07:25:29.112Z,100789.41
2022-09-22T07:27:59.299Z,100793.81
2022-09-22T07:30:26.389Z,100799.75
2022-09-22T07:32:53.160Z,100795.72
2022-09-22T07:35:19.925Z,100790.88
2022-09-22T07:37:46.727Z,100771.25
2022-09-22T07:40:14.707Z,100764.44
2022-09-22T07:42:41.632Z,100780.34
2022-09-22T07:45:12.885Z,100779.56
2022-09-22T07:47:58.915Z,100774.31
2022-09-22T07:50:25.744Z,100768.41
2022-09-22T07:52:53.512Z,100769.22
2022-09-22T07:55:25.142Z,100783.97
2022-09-22T07:57:56.682Z,100792.31
2022-09-22T08:00:34.537Z,100796.63
2022-09-22T08:03:01.492Z,100798.66
2022-09-22T08:05:29.044Z,100789.84
2022-09-22T08:07:58.338Z,100785.06
2022-09-22T08:10:26.215Z,100784.72
2022-09-22T08:12:58.173Z,100789.09
2022-09-22T08:15:27.412Z,100793.06
2022-09-22T08:18:01.813Z,100794.63
2022-09-22T08:20:29.262Z,100794.16
2022-09-22T08:23:03.175Z,100797.78
2022-09-22T08:25:30.605Z,100799.41
2022-09-22T08:27:57.477Z,100804.97
2022-09-22T08:30:24.324Z,100808.94
2022-09-22T08:32:51.047Z,100814.50
2022-09-22T08:35:18.234Z,100808.13
2022-09-22T08:37:45.763Z,100800.97
2022-09-22T08:40:23.817Z,100799.81
2022-09-22T08:42:54.577Z,100805.41
2022-09-22T08:45:34.717Z,100801.84
2022-09-22T08:48:38.057Z,100814.63
2022-09-22T08:51:34.217Z,100809.84
2022-09-22T08:54:04.465Z,100805.06
2022-09-22T08:56:57.642Z,100791.53
2022-09-22T08:59:33.008Z,100795.22
2022-09-22T09:02:30.611Z,100804.44
2022-09-22T09:05:23.665Z,100797.69
2022-09-22T09:08:19.339Z,100794.06
2022-09-22T09:11:20.487Z,100783.72
2022-09-22T09:14:08.434Z,100792.91
2022-09-22T09:16:40.973Z,100785.34
2022-09-22T09:19:16.528Z,100790.94
2022-09-22T09:21:55.264Z,100800.06
2022-09-22T09:27:25.235Z,100802.84
2022-09-22T09:30:06.927Z,100806.44
2022-09-22T09:33:00.714Z,100811.63
2022-09-22T09:35:53.064Z,100809.66
2022-09-22T09:38:29.832Z,100801.63
2022-09-22T09:41:11.952Z,100800.47
2022-09-22T09:43:42.828Z,100806.84
2022-09-22T09:46:19.446Z,100810.88
2022-09-22T09:49:14.945Z,100809.31
2022-09-22T09:52:04.119Z,100812.16
2022-09-22T09:54:31.013Z,100829.34
2022-09-22T09:57:12.914Z,100824.19
2022-09-22T10:00:01.223Z,100823.03
2022-09-22T10:02:29.793Z,100824.63
2022-09-22T10:05:02.645Z,100832.19
2022-09-22T10:07:39.423Z,100836.50
2022-09-22T10:10:35.916Z,100839.63
2022-09-22T10:13:05.329Z,100849.53
2022-09-22T10:15:40.565Z,100845.16
2022-09-22T10:18:33.783Z,100851.53
2022-09-22T10:21:07.325Z,100858.31
2022-09-22T10:23:34.629Z,100853.53
2022-09-22T10:26:14.907Z,100866.66
2022-09-22T10:28:41.730Z,100861.09
2022-09-22T10:31:20.464Z,100862.69
2022-09-22T10:33:55.893Z,100864.31
2022-09-22T10:36:26.248Z,100855.53
2022-09-22T10:38:57.389Z,100850.41
2022-09-22T10:41:34.417Z,100847.66
2022-09-22T10:44:35.053Z,100845.34
2022-09-22T10:47:27.256Z,100856.53
2022-09-22T10:50:28.548Z,100863.69
2022-09-22T10:53:32.122Z,100864.56
2022-09-22T10:56:22.728Z,100859.41
2022-09-22T10:59:19.113Z,100854.25
2022-09-22T11:02:03.080Z,100854.25
2022-09-22T11:04:42.945Z,100850.22
2022-09-22T11:07:40.279Z,100853.81
2022-09-22T11:10:31.613Z,100844.28
2022-09-22T11:13:17.766Z,100847.91
2022-09-22T11:16:13.411Z,100854.72
2022-09-22T11:18:57.371Z,100863.59
2022-09-22T11:21:43.889Z,100864.81
2022-09-22T11:24:26.397Z,100863.19
2022-09-22T11:26:59.857Z,100866.00
2022-09-22T11:29:55.784Z,100861.66
2022-09-22T11:32:40.344Z,100856.19
2022-09-22T11:35:25.669Z,100853.47
2022-09-22T11:38:02.325Z,100857.91
2022-09-22T11:43:45.737Z,100864.44
2022-09-22T11:46:33.928Z,100861.19
2022-09-22T11:49:19.260Z,100866.75
2022-09-22T11:51:53.827Z,100866.28
2022-09-22T11:54:20.456Z,100877.75
2022-09-22T11:56:53.282Z,100882.38
2022-09-22T11:59:35.595Z,100878.28
2022-09-22T12:02:12.186Z,100874.69
2022-09-22T12:04:51.964Z,100887.06
2022-09-22T12:07:28.000Z,100885.50
2022-09-22T12:10:07.936Z,100893.06
2022-09-22T12:12:35.265Z,100884.63
2022-09-22T12:15:21.313Z,100890.19
2022-09-22T12:18:05.469Z,100885.38
2022-09-22T12:20:44.497Z,100884.53
2022-09-22T12:23:27.533Z,100894.50
2022-09-22T12:25:58.173Z,100901.25
2022-09-22T12:28:28.185Z,100892.91
2022-09-22T12:31:12.940Z,100901.25
2022-09-22T12:33:47.695Z,100895.69
2022-09-22T12:36:15.517Z,100897.31
2022-09-22T12:38:43.893Z,100895.69
2022-09-22T12:41:17.665Z,100895.28
2022-09-22T12:43:45.944Z,100891.34
2022-09-22T12:46:27.974Z,100892.09
2022-09-22T12:48:54.952Z,100874.53
2022-09-22T12:51:24.571Z,100873.34
2022-09-22T12:53:51.764Z,100877.38
2022-09-22T12:56:47.148Z,100880.19
2022-09-22T12:59:35.759Z,100883.34
2022-09-22T13:02:31.644Z,100883.34
2022-09-22T13:04:58.709Z,100881.31
2022-09-22T13:07:44.442Z,100880.09
2022-09-22T13:10:23.186Z,100877.31
2022-09-22T13:13:01.068Z,100880.09
2022-09-22T13:15:35.160Z,100874.59
2022-09-22T13:18:03.960Z,100879.50
2022-09-22T13:20:33.143Z,100881.22
2022-09-22T13:23:13.030Z,100888.06
2022-09-22T13:25:40.441Z,100880.56
2022-09-22T13:28:09.878Z,100876.63
2022-09-22T13:30:38.536Z,100879.88
2022-09-22T13:33:05.777Z,100880.31
2022-09-22T13:35:37.673Z,100890.66
2022-09-22T13:38:04.921Z,100889.88
2022-09-22T13:40:34.981Z,100891.06
2022-09-22T13:43:07.601Z,100887.09
2022-09-22T13:45:38.649Z,100892.34
2022-09-22T13:48:15.849Z,100889.22
2022-09-22T13:50:59.038Z,100880.59
2022-09-22T13:53:26.276Z,100880.38
2022-09-22T13:55:54.266Z,100893.56
2022-09-22T13:58:41.785Z,100893.94
2022-09-22T14:01:20.981Z,100904.31
2022-09-22T14:03:49.395Z,100900.72
2022-09-22T14:06:19.386Z,100894.34
2022-09-22T14:08:48.369Z,100904.66
2022-09-22T14:11:27.470Z,100908.16
2022-09-22T14:13:54.596Z,100904.03
2022-09-22T14:16:43.622Z,100910.28
2022-09-22T14:19:24.704Z,100909.78
2022-09-22T14:21:52.351Z,100909.72
2022-09-22T14:24:19.583Z,100907.75
2022-09-22T14:26:51.295Z,100900.59
2022-09-22T14:29:25.505Z,100896.31
2022-09-22T14:32:19.846Z,100898.44
2022-09-22T14:34:54.864Z,100902.19
2022-09-22T14:37:24.934Z,100904.31
2022-09-22T14:39:53.965Z,100896.88
2022-09-22T14:42:31.661Z,100908.69
2022-09-22T14:45:10.261Z,100898.44
2022-09-22T14:47:42.490Z,100900.94
2022-09-22T14:50:27.423Z,100904.66
2022-09-22T14:53:06.988Z,100898.75
2022-09-22T14:55:39.743Z,100899.63
2022-09-22T14:58:14.773Z,100903.69
2022-09-22T15:01:35.499Z,100908.91
2022-09-22T15:04:25.287Z,100905.63
2022-09-22T15:06:56.506Z,100909.19
2022-09-22T15:09:34.203Z,100912.69
2022-09-22T15:12:03.575Z,100906.34
2022-09-22T15:14:45.061Z,100908.75
2022-09-22T15:17:55.547Z,100909.59
2022-09-22T15:20:25.218Z,100911.22
2022-09-22T15:22:56.252Z,100910.47
2022-09-22T15:25:24.338Z,100907.28
2022-09-22T15:27:53.384Z,100914.09
2022-09-22T15:30:22.161Z,100912.09
2022-09-22T15:32:49.812Z,100909.72
2022-09-22T15:35:18.054Z,100912.56
2022-09-22T15:37:50.169Z,100913.00
2022-09-22T15:40:20.628Z,100908.63
2022-09-22T15:43:11.223Z,100905.13
2022-09-22T15:45:37.398Z,100907.63
2022-09-22T15:48:05.287Z,100906.97
2022-09-22T15:50:32.607Z,100893.88
2022-09-22T15:52:59.306Z,100893.22
2022-09-22T15:55:26.115Z,100896.88
2022-09-22T15:57:55.373Z,100889.72
2022-09-22T16:00:27.251Z,100900.16
2022-09-22T16:02:54.736Z,100898.59
2022-09-22T16:05:21.756Z,100912.66
2022-09-22T16:07:51.672Z,100911.91
2022-09-22T16:10:23.577Z,100905.91
2022-09-22T16:12:50.664Z,100904.31
2022-09-22T16:15:18.156Z,100903.56
2022-09-22T16:17:46.016Z,100909.16
2022-09-22T16:20:15.851Z,100900.75
2022-09-22T16:22:45.465Z,100907.50
2022-09-22T16:25:12.767Z,100904.94
2022-09-22T16:27:39.545Z,100897.69
2022-09-22T16:30:07.005Z,100904.78
2022-09-22T16:32:34.088Z,100902.28
2022-09-22T16:35:00.770Z,100914.22
2022-09-22T16:37:29.255Z,100907.75
2022-09-22T16:39:56.311Z,100903.69
2022-09-22T16:42:23.859Z,100901.97
2022-09-22T16:44:50.846Z,100910.72
2022-09-22T16:47:21.217Z,100898.69
2022-09-22T16:49:49.650Z,100907.47
2022-09-22T16:52:16.816Z,100908.63
2022-09-22T16:54:44.150Z,100907.00
2022-09-22T16:57:10.847Z,100908.16
2022-09-22T16:59:38.098Z,100907.31
2022-09-22T17:02:05.127Z,100910.50
2022-09-22T17:04:32.437Z,100911.66
2022-09-22T17:06:59.331Z,100916.41
2022-09-22T17:09:26.107Z,100905.56
2022-09-22T17:11:53.722Z,100915.09
2022-09-22T17:14:24.542Z,100915.09
2022-09-22T17:16:55.465Z,100917.03
2022-09-22T17:19:27.646Z,100919.81
2022-09-22T17:21:56.498Z,100920.16
2022-09-22T17:24:24.809Z,100924.94
2022-09-22T17:26:53.973Z,100924.06
2022-09-22T17:29:26.519Z,100927.63
2022-09-22T17:31:57.461Z,100926.75
2022-09-22T17:34:25.591Z,100936.63
2022-09-22T17:36:55.473Z,100932.94
2022-09-22T17:39:27.239Z,100935.22
2022-09-22T17:41:55.244Z,100936.31
2022-09-22T17:44:22.084Z,100937.41
2022-09-22T17:47:11.572Z,100938.91
2022-09-22T17:49:59.383Z,100941.56
2022-09-22T17:52:29.764Z,100946.63
2022-09-22T17:55:07.280Z,100941.31
2022-09-22T17:57:39.333Z,100949.59
2022-09-22T18:00:07.497Z,100943.41
2022-09-22T18:02:39.055Z,100952.47
2022-09-22T18:05:14.599Z,100953.16
2022-09-22T18:07:41.935Z,100955.09
2022-09-22T18:10:11.044Z,100956.22
2022-09-22T18:12:37.967Z,100967.38
2022-09-22T18:15:05.591Z,100976.13
2022-09-22T18:17:41.338Z,100970.91
2022-09-22T18:20:20.760Z,100974.03
2022-09-22T18:22:48.603Z,100971.19
2022-09-22T18:25:19.705Z,100979.13
2022-09-22T18:27:48.783Z,100979.06
2022-09-22T18:30:17.115Z,100978.25
2022-09-22T18:32:44.160Z,100975.03
2022-09-22T18:35:12.955Z,100983.75
2022-09-22T18:37:41.134Z,100989.28
2022-09-22T18:40:09.378Z,100982.53
2022-09-22T18:42:36.858Z,100986.06
2022-09-22T18:45:04.216Z,100994.81
2022-09-22T18:47:30.949Z,100997.94
2022-09-22T18:49:59.290Z,100998.72
2022-09-22T18:52:27.765Z,101004.66
2022-09-22T18:54:54.735Z,100999.75
2022-09-22T18:57:27.339Z,101002.47
2022-09-22T18:59:57.755Z,101007.22
2022-09-22T19:02:29.147Z,101007.97
2022-09-22T19:04:55.878Z,101010.25
2022-09-22T19:07:52.109Z,101017.31
2022-09-22T19:10:23.509Z,101014.38
2022-09-22T19:12:50.416Z,101013.06
2022-09-22T19:15:19.084Z,101009.31
2022-09-22T19:17:49.725Z,101020.75
2022-09-22T19:20:21.333Z,101009.47
2022-09-22T19:22:50.552Z,101008.59
2022-09-22T19:25:20.175Z,101007.69
2022-09-22T19:27:47.058Z,101008.06
2022-09-22T19:30:14.106Z,101017.06
2022-09-22T19:32:41.380Z,101011.34
2022-09-22T19:35:08.857Z,101021.59
2022-09-22T19:37:36.409Z,101023.91
2022-09-22T19:40:05.490Z,101025.00
2022-09-22T19:42:32.530Z,101030.84
2022-09-22T19:45:00.354Z,101034.34
2022-09-22T19:47:27.052Z,101032.66
2022-09-22T19:49:55.073Z,101030.59
2022-09-22T19:52:21.975Z,101021.78
2022-09-22T19:54:48.673Z,101035.25
2022-09-22T19:57:16.438Z,101030.41
2022-09-22T19:59:43.129Z,101036.69
2022-09-22T20:02:14.473Z,101034.19
2022-09-22T20:04:41.638Z,101046.88
2022-09-22T20:07:08.646Z,101048.38
2022-09-22T20:09:35.693Z,101047.13
2022-09-22T20:12:02.683Z,101041.94
2022-09-22T20:14:31.544Z,101048.13
2022-09-22T20:17:04.125Z,101047.31
2022-09-22T20:19:35.276Z,101043.28
2022-09-22T20:22:17.580Z,101045.72
2022-09-22T20:24:50.399Z,101046.06
2022-09-22T20:27:17.274Z,101041.56
2022-09-22T20:29:44.064Z,101046.00
2022-09-22T20:32:10.939Z,101044.81
2022-09-22T20:34:38.006Z,101055.94
2022-09-22T20:37:04.710Z,101048.78
2022-09-22T20:39:32.740Z,101046.81
2022-09-22T20:41:59.878Z,101043.22
2022-09-22T20:44:26.522Z,101051.47
2022-09-22T20:46:53.213Z,101050.19
2022-09-22T20:49:20.105Z,101057.66
2022-09-22T20:51:47.562Z,101052.00
2022-09-22T20:54:14.481Z,101057.47
2022-09-22T20:56:42.961Z,101064.09
2022-09-22T20:59:10.327Z,101052.16
2022-09-22T21:01:37.190Z,101049.66
2022-09-22T21:04:04.028Z,101049.19
2022-09-22T21:06:31.203Z,101050.34
2022-09-22T21:09:16.635Z,101053.41
2022-09-22T21:11:44.181Z,101050.19
2022-09-22T21:14:11.315Z,101058.06
2022-09-22T21:16:40.093Z,101053.22
2022-09-22T21:19:08.289Z,101056.72
2022-09-22T21:21:38.482Z,101052.22
2022-09-22T21:24:05.474Z,101060.00
2022-09-22T21:26:33.204Z,101058.75
2022-09-22T21:29:00.290Z,101056.31
2022-09-22T21:31:27.406Z,101058.19
2022-09-22T21:33:54.787Z,101055.75
2022-09-22T21:36:23.117Z,101054.47
2022-09-22T21:38:55.813Z,101066.66
2022-09-22T21:41:25.541Z,101062.25
2022-09-22T21:43:52.746Z,101068.16
2022-09-22T21:46:22.276Z,101071.31
2022-09-22T21:48:49.265Z,101072.47
2022-09-22T21:51:22.334Z,101069.56
2022-09-22T21:53:52.266Z,101072.25
2022-09-22T21:56:20.803Z,101071.00
2022-09-22T21:58:50.212Z,101073.78
2022-09-22T22:01:19.460Z,101074.94
2022-09-22T22:03:47.420Z,101071.69
2022-09-22T22:06:14.105Z,101074.72
2022-09-22T22:08:51.418Z,101076.13
2022-09-22T22:11:23.530Z,101077.63
2022-09-22T22:13:52.329Z,101070.38
2022-09-22T22:16:25.825Z,101079.72
2022-09-22T22:18:53.058Z,101084.03
2022-09-22T22:21:25.051Z,101079.66
2022-09-22T22:23:55.109Z,101083.44
2022-09-22T22:26:25.212Z,101090.63
2022-09-22T22:28:52.981Z,101092.59
2022-09-22T22:31:22.855Z,101090.53
2022-09-22T22:33:50.818Z,101083.38
2022-09-22T22:36:19.816Z,101083.38
2022-09-22T22:38:46.529Z,101080.09
2022-09-22T22:41:17.296Z,101084.06
2022-09-22T22:43:44.664Z,101087.97
2022-09-22T22:46:16.326Z,101083.94
2022-09-22T22:48:44.071Z,101087.06
2022-09-22T22:51:14.343Z,101093.31
2022-09-22T22:53:43.505Z,101094.47
2022-09-22T22:56:13.574Z,101087.66
2022-09-22T22:58:40.340Z,101090.78
2022-09-22T23:01:19.575Z,101089.16
2022-09-22T23:03:50.296Z,101095.06
2022-09-22T23:06:21.161Z,101082.69
2022-09-22T23:08:49.156Z,101083.03
2022-09-22T23:11:37.254Z,101080.63
2022-09-22T23:14:06.277Z,101086.16
2022-09-22T23:16:37.518Z,101085.72
2022-09-22T23:19:07.644Z,101092.41
2022-09-22T23:21:36.220Z,101090.09
2022-09-22T23:24:04.053Z,101090.44
2022-09-22T23:26:30.937Z,101088.38
2022-09-22T23:29:02.113Z,101091.81
2022-09-22T23:31:28.941Z,101083.03
2022-09-22T23:33:57.655Z,101097.25
2022-09-22T23:36:27.781Z,101094.03
2022-09-22T23:39:04.750Z,101093.91
2022-09-22T23:41:33.285Z,101097.03
2022-09-22T23:44:00.452Z,101104.53
2022-09-22T23:46:28.637Z,101100.50
2022-09-22T23:48:55.823Z,101097.72
2022-09-22T23:51:24.693Z,101098.41
2022-09-22T23:53:51.827Z,101088.00
2022-09-22T23:56:19.807Z,101090.31
2022-09-22T23:58:46.674Z,101095.75
